createdAt,value
2019-04-06T00:00:43.736Z,54.17
2019-04-06T00:03:11.925Z,54.13
2019-04-06T00:05:40.440Z,55.80
2019-04-06T00:08:08.694Z,53.23
2019-04-06T00:10:37.344Z,56.80
2019-04-06T00:13:05.563Z,56.90
2019-04-06T00:15:34.131Z,56.17
2019-04-06T00:18:02.397Z,56.10
2019-04-06T00:20:30.811Z,56.33
2019-04-06T00:22:59.057Z,53.90
2019-04-06T00:25:27.395Z,53.90
2019-04-06T00:27:55.591Z,56.03
2019-04-06T00:30:23.909Z,57.13
2019-04-06T00:33:02.871Z,56.60
2019-04-06T00:35:31.457Z,55.13
2019-04-06T00:37:59.660Z,54.30
2019-04-06T00:40:28.378Z,53.47
2019-04-06T00:42:56.561Z,54.23
2019-04-06T00:45:24.906Z,53.77
2019-04-06T00:47:53.176Z,52.87
2019-04-06T00:50:21.364Z,53.03
2019-04-06T00:52:49.663Z,52.07
2019-04-06T00:55:17.892Z,50.83
2019-04-06T00:57:46.170Z,51.73
2019-04-06T01:00:15.784Z,50.63
2019-04-06T01:02:44.278Z,51.23
2019-04-06T01:05:12.465Z,52.30
2019-04-06T01:07:40.611Z,49.97
2019-04-06T01:10:08.812Z,53.97
2019-04-06T01:12:37.157Z,51.70
2019-04-06T01:15:05.861Z,58.70
2019-04-06T01:17:34.428Z,57.70
2019-04-06T01:20:02.697Z,57.73
2019-04-06T01:22:31.161Z,63.53
2019-04-06T01:24:59.540Z,62.53
2019-04-06T01:27:27.956Z,60.17
2019-04-06T01:29:56.146Z,59.80
2019-04-06T01:32:24.330Z,60.33
2019-04-06T01:34:52.517Z,60.60
2019-04-06T01:37:20.693Z,59.53
2019-04-06T01:39:48.908Z,59.20
2019-04-06T01:42:17.390Z,61.00
2019-04-06T01:44:45.657Z,60.20
2019-04-06T01:47:13.903Z,59.13
2019-04-06T01:49:42.482Z,58.03
2019-04-06T01:52:10.775Z,60.23
2019-04-06T01:54:39.128Z,60.67
2019-04-06T01:57:07.647Z,67.90
2019-04-06T01:59:35.837Z,69.53
2019-04-06T02:02:22.739Z,67.37
2019-04-06T02:04:51.102Z,70.90
2019-04-06T02:07:19.246Z,70.00
2019-04-06T02:09:47.623Z,61.90
2019-04-06T02:12:16.049Z,61.60
2019-04-06T02:14:44.307Z,60.00
2019-04-06T02:17:12.529Z,54.53
2019-04-06T02:19:40.839Z,53.33
2019-04-06T02:22:09.131Z,63.03
2019-04-06T02:24:37.569Z,72.77
2019-04-06T02:27:05.712Z,60.30
2019-04-06T02:29:33.972Z,58.17
2019-04-06T02:32:03.805Z,56.40
2019-04-06T02:34:33.850Z,52.03
2019-04-06T02:37:19.546Z,53.67
2019-04-06T02:39:52.540Z,51.33
2019-04-06T02:42:22.342Z,48.17
2019-04-06T02:44:50.954Z,50.63
2019-04-06T02:47:19.225Z,55.03
2019-04-06T02:49:47.841Z,55.40
2019-04-06T02:52:16.437Z,54.40
2019-04-06T02:54:44.628Z,54.40
2019-04-06T02:57:12.824Z,53.83
2019-04-06T02:59:41.148Z,54.70
2019-04-06T03:02:09.432Z,51.07
2019-04-06T03:04:38.991Z,53.17
2019-04-06T03:07:07.803Z,52.27
2019-04-06T03:09:36.368Z,50.33
2019-04-06T03:12:04.854Z,37.63
2019-04-06T03:14:33.267Z,36.73
2019-04-06T03:17:01.726Z,49.83
2019-04-06T03:19:29.867Z,37.00
2019-04-06T03:21:58.254Z,37.80
2019-04-06T03:24:26.889Z,39.67
2019-04-06T03:27:01.718Z,39.00
2019-04-06T03:29:25.619Z,39.90
2019-04-06T03:31:54.122Z,42.43
2019-04-06T03:34:22.774Z,43.10
2019-04-06T03:36:51.660Z,43.80
2019-04-06T03:39:20.275Z,43.10
2019-04-06T03:41:48.980Z,47.93
2019-04-06T03:44:17.388Z,48.07
2019-04-06T03:46:45.644Z,44.97
2019-04-06T03:49:13.904Z,48.93
2019-04-06T03:51:43.103Z,43.50
2019-04-06T03:54:11.311Z,44.80
2019-04-06T03:56:39.637Z,50.97
2019-04-06T03:59:08.166Z,49.73
2019-04-06T04:01:36.687Z,52.37
2019-04-06T04:04:05.025Z,52.40
2019-04-06T04:06:34.336Z,45.03
2019-04-06T04:09:04.351Z,42.37
2019-04-06T04:11:32.791Z,45.17
2019-04-06T04:14:01.002Z,44.57
2019-04-06T04:16:29.391Z,42.07
2019-04-06T04:18:57.745Z,43.90
2019-04-06T04:21:26.139Z,37.17
2019-04-06T04:23:54.335Z,33.80
2019-04-06T04:26:22.497Z,31.27
2019-04-06T04:28:50.886Z,36.97
2019-04-06T04:31:19.430Z,40.43
2019-04-06T04:33:48.151Z,41.93
2019-04-06T04:36:16.767Z,64.05
2019-04-06T04:38:45.023Z,48.17
2019-04-06T04:41:13.498Z,45.43
2019-04-06T04:43:42.170Z,38.87
2019-04-06T04:46:10.835Z,41.37
2019-04-06T04:48:39.156Z,46.00
2019-04-06T04:51:07.342Z,41.23
2019-04-06T04:53:35.681Z,41.17
2019-04-06T04:56:04.282Z,39.17
2019-04-06T04:58:32.521Z,36.97
2019-04-06T05:01:00.826Z,36.53
2019-04-06T05:03:29.538Z,37.03
2019-04-06T05:05:57.727Z,38.83
2019-04-06T05:08:27.207Z,41.40
2019-04-06T05:10:55.826Z,93.83
2019-04-06T05:13:24.417Z,79.67
2019-04-06T05:15:54.373Z,79.37
2019-04-06T05:18:22.918Z,66.97
2019-04-06T05:20:51.436Z,57.43
2019-04-06T05:23:19.638Z,49.20
2019-04-06T05:25:47.808Z,49.30
2019-04-06T05:28:16.140Z,47.77
2019-04-06T05:30:44.599Z,52.87
2019-04-06T05:33:12.797Z,56.07
2019-04-06T05:35:41.294Z,64.40
2019-04-06T05:38:09.428Z,60.13
2019-04-06T05:40:37.949Z,51.73
2019-04-06T05:43:06.611Z,46.87
2019-04-06T05:45:34.899Z,44.07
2019-04-06T05:48:03.377Z,51.03
2019-04-06T05:50:32.274Z,53.93
2019-04-06T05:53:00.964Z,58.57
2019-04-06T05:55:29.558Z,61.53
2019-04-06T05:58:03.997Z,66.43
2019-04-06T06:00:28.305Z,61.23
2019-04-06T06:02:56.495Z,62.53
2019-04-06T06:05:25.061Z,59.40
2019-04-06T06:07:53.527Z,49.60
2019-04-06T06:10:23.028Z,43.37
2019-04-06T06:12:51.370Z,40.30
2019-04-06T06:15:19.899Z,38.73
2019-04-06T06:17:48.185Z,41.23
2019-04-06T06:20:16.393Z,39.73
2019-04-06T06:22:44.564Z,42.60
2019-04-06T06:25:12.955Z,36.63
2019-04-06T06:27:41.577Z,36.90
2019-04-06T06:30:10.252Z,34.43
2019-04-06T06:32:38.789Z,34.53
2019-04-06T06:35:07.560Z,35.37
2019-04-06T06:37:36.168Z,37.63
2019-04-06T06:40:07.895Z,34.93
2019-04-06T06:42:36.078Z,35.67
2019-04-06T06:45:05.476Z,40.10
2019-04-06T06:47:33.776Z,39.50
2019-04-06T06:50:02.022Z,40.60
2019-04-06T06:52:30.741Z,42.30
2019-04-06T06:54:59.184Z,42.23
2019-04-06T06:57:28.136Z,51.60
2019-04-06T06:59:56.493Z,48.13
2019-04-06T07:02:24.699Z,47.23
2019-04-06T07:04:52.898Z,42.10
2019-04-06T07:07:21.371Z,39.07
2019-04-06T07:09:50.151Z,39.73
2019-04-06T07:12:19.478Z,39.43
2019-04-06T07:14:47.622Z,39.97
2019-04-06T07:17:15.798Z,41.53
2019-04-06T07:19:44.240Z,43.53
2019-04-06T07:22:12.390Z,46.17
2019-04-06T07:24:40.760Z,49.33
2019-04-06T07:27:09.050Z,63.33
2019-04-06T07:29:37.479Z,51.10
2019-04-06T07:32:05.682Z,51.43
2019-04-06T07:34:33.943Z,41.93
2019-04-06T07:37:02.322Z,42.33
2019-04-06T07:39:30.492Z,43.97
2019-04-06T07:41:58.716Z,49.90
2019-04-06T07:44:27.054Z,49.40
2019-04-06T07:46:55.449Z,49.47
2019-04-06T07:52:34.593Z,44.77
2019-04-06T07:55:03.473Z,42.00
2019-04-06T08:41:22.751Z,39.93
2019-04-06T08:43:50.946Z,44.17
2019-04-06T08:46:19.509Z,36.03
2019-04-06T08:48:47.778Z,36.80
2019-04-06T08:51:16.173Z,35.60
2019-04-06T08:53:44.823Z,31.80
2019-04-06T08:56:13.303Z,32.30
2019-04-06T08:58:41.966Z,33.37
2019-04-06T09:01:10.108Z,37.37
2019-04-06T09:03:38.948Z,47.03
2019-04-06T09:06:07.261Z,52.50
2019-04-06T09:08:35.902Z,45.17
2019-04-06T09:11:04.369Z,36.27
2019-04-06T09:13:32.574Z,34.10
2019-04-06T09:16:01.159Z,35.53
2019-04-06T09:18:30.958Z,33.73
2019-04-06T09:20:59.361Z,33.40
2019-04-06T09:23:27.743Z,34.43
2019-04-06T09:25:56.510Z,42.80
2019-04-06T09:28:25.381Z,36.90
2019-04-06T09:30:54.268Z,34.17
2019-04-06T09:33:22.982Z,32.53
2019-04-06T09:35:51.378Z,32.03
2019-04-06T09:38:19.787Z,33.60
2019-04-06T09:40:48.770Z,34.70
2019-04-06T09:43:18.317Z,32.23
2019-04-06T09:45:53.963Z,38.13
2019-04-06T09:48:33.325Z,36.77
2019-04-06T09:51:15.285Z,36.83
2019-04-06T09:53:48.015Z,44.73
2019-04-06T09:56:33.286Z,51.17
2019-04-06T09:59:18.526Z,56.27
2019-04-06T10:02:04.892Z,48.53
2019-04-06T10:04:35.001Z,46.23
2019-04-06T10:07:04.804Z,57.10
2019-04-06T10:09:46.333Z,52.90
2019-04-06T10:12:25.146Z,49.10
2019-04-06T10:15:11.965Z,47.23
2019-04-06T10:17:59.677Z,44.57
2019-04-06T10:20:32.950Z,46.13
2019-04-06T10:23:02.975Z,46.37
2019-04-06T10:25:47.973Z,48.27
2019-04-06T10:28:33.248Z,50.00
2019-04-06T10:31:06.147Z,52.17
2019-04-06T10:33:36.318Z,65.53
2019-04-06T10:36:15.597Z,66.30
2019-04-06T10:39:01.517Z,71.17
2019-04-06T10:41:31.700Z,74.37
2019-04-06T10:44:17.884Z,95.63
2019-04-06T10:47:00.186Z,49.80
2019-04-06T10:49:30.021Z,44.93
2019-04-06T10:52:00.055Z,43.37
2019-04-06T10:54:32.924Z,34.20
2019-04-06T10:57:18.169Z,52.93
2019-04-06T11:00:02.597Z,35.10
2019-04-06T11:02:47.877Z,35.40
2019-04-06T11:05:20.720Z,36.13
2019-04-06T11:07:53.723Z,39.10
2019-04-06T11:10:38.731Z,31.83
2019-04-06T11:13:11.385Z,33.33
2019-04-06T11:15:47.462Z,63.47
2019-04-06T11:18:17.571Z,39.43
2019-04-06T11:20:47.381Z,12.30
2019-04-06T11:23:23.548Z,24.73
2019-04-06T11:25:56.395Z,24.70
2019-04-06T11:28:26.421Z,9.93
2019-04-06T11:30:59.552Z,4.90
2019-04-06T11:33:29.911Z,4.93
2019-04-06T11:36:03.086Z,11.47
2019-04-06T11:38:50.011Z,26.30
2019-04-06T11:41:19.966Z,35.33
2019-04-06T11:43:58.726Z,43.07
2019-04-06T11:46:29.751Z,63.57
2019-04-06T11:49:11.629Z,12.50
2019-04-06T11:51:57.869Z,14.43
2019-04-06T11:54:42.585Z,5.40
2019-04-06T11:57:12.369Z,7.03
2019-04-06T11:59:48.060Z,8.93
2019-04-06T12:02:34.198Z,10.50
2019-04-06T12:05:20.684Z,13.40
2019-04-06T12:08:07.012Z,5.70
2019-04-06T12:10:46.367Z,23.03
2019-04-06T12:13:19.220Z,8.13
2019-04-06T12:15:52.596Z,5.40
2019-04-06T12:18:22.553Z,4.93
2019-04-06T12:21:05.192Z,6.30
2019-04-06T12:23:47.280Z,4.20
2019-04-06T12:26:17.400Z,4.10
2019-04-06T12:28:47.151Z,4.70
2019-04-06T12:31:29.521Z,9.00
2019-04-06T12:34:01.770Z,6.37
2019-04-06T12:36:49.135Z,8.53
2019-04-06T12:39:22.304Z,10.63
2019-04-06T12:41:55.245Z,17.70
2019-04-06T12:44:42.004Z,15.43
2019-04-06T12:47:13.214Z,27.93
2019-04-06T12:49:59.984Z,46.93
2019-04-06T12:52:33.075Z,38.33
2019-04-06T12:55:02.877Z,29.93
2019-04-06T12:57:33.758Z,33.80
2019-04-06T13:00:03.879Z,25.83
2019-04-06T13:02:36.787Z,19.87
2019-04-06T13:05:19.026Z,32.33
2019-04-06T13:07:49.178Z,50.30
2019-04-06T13:10:24.723Z,28.60
2019-04-06T13:13:12.880Z,51.00
2019-04-06T13:15:42.912Z,26.93
2019-04-06T13:18:18.680Z,19.83
2019-04-06T13:21:01.265Z,19.77
2019-04-06T13:23:46.544Z,19.20
2019-04-06T13:26:35.703Z,16.90
2019-04-06T13:29:20.868Z,17.70
2019-04-06T13:31:57.855Z,14.03
2019-04-06T13:34:43.795Z,25.27
2019-04-06T13:37:23.199Z,30.17
2019-04-06T13:39:56.704Z,39.13
2019-04-06T13:42:43.847Z,35.27
2019-04-06T13:45:19.753Z,18.63
2019-04-06T13:48:02.854Z,13.53
2019-04-06T13:50:40.513Z,12.33
2019-04-06T13:53:10.516Z,12.90
2019-04-06T13:55:55.678Z,15.23
2019-04-06T13:58:26.095Z,16.37
2019-04-06T14:00:59.507Z,25.37
2019-04-06T14:03:29.409Z,15.43
2019-04-06T14:06:18.134Z,9.80
2019-04-06T14:09:05.222Z,5.80
2019-04-06T14:11:38.862Z,8.23
2019-04-06T14:14:15.225Z,16.00
2019-04-06T14:16:57.564Z,7.30
2019-04-06T14:19:42.839Z,45.17
2019-04-06T14:22:24.808Z,27.23
2019-04-06T14:25:01.681Z,27.27
2019-04-06T14:27:34.442Z,15.20
2019-04-06T14:30:21.503Z,13.47
2019-04-06T14:32:57.648Z,13.50
2019-04-06T14:35:40.203Z,10.20
2019-04-06T14:38:27.519Z,9.97
2019-04-06T14:41:16.483Z,15.13
2019-04-06T14:43:45.818Z,107.23
2019-04-06T14:46:33.041Z,22.87
2019-04-06T14:49:29.604Z,13.23
2019-04-06T14:51:55.648Z,12.70
2019-04-06T14:54:42.510Z,10.83
2019-04-06T14:57:28.371Z,11.30
2019-04-06T15:00:13.789Z,13.30
2019-04-06T15:02:59.779Z,18.50
2019-04-06T15:05:39.212Z,16.60
2019-04-06T15:08:11.698Z,14.73
2019-04-06T15:10:44.999Z,16.43
2019-04-06T15:13:15.300Z,16.80
2019-04-06T15:16:01.029Z,17.00
2019-04-06T15:18:46.370Z,14.00
2019-04-06T15:21:26.001Z,10.30
2019-04-06T15:24:14.347Z,17.80
2019-04-06T15:26:44.243Z,5.80
2019-04-06T15:29:30.728Z,11.87
2019-04-06T15:32:19.100Z,22.13
2019-04-06T15:34:49.447Z,14.80
2019-04-06T15:37:19.806Z,8.57
2019-04-06T15:40:06.663Z,22.73
2019-04-06T15:42:36.557Z,31.10
2019-04-06T15:45:19.192Z,22.17
2019-04-06T15:47:52.175Z,8.87
2019-04-06T15:50:40.202Z,6.13
2019-04-06T15:53:19.499Z,14.90
2019-04-06T15:55:54.890Z,11.13
2019-04-06T15:58:30.955Z,12.47
2019-04-06T16:01:13.037Z,17.63
2019-04-06T16:03:49.543Z,21.03
2019-04-06T16:06:19.746Z,64.53
2019-04-06T16:08:53.098Z,19.60
2019-04-06T16:11:29.303Z,31.37
2019-04-06T16:14:11.292Z,55.60
2019-04-06T16:16:43.398Z,31.40
2019-04-06T16:19:22.521Z,23.33
2019-04-06T16:21:58.731Z,14.67
2019-04-06T16:24:32.352Z,19.60
2019-04-06T16:27:10.419Z,18.87
2019-04-06T16:29:55.460Z,14.10
2019-04-06T16:32:33.406Z,8.00
2019-04-06T16:34:59.510Z,19.20
2019-04-06T16:37:45.998Z,10.83
2019-04-06T16:40:27.948Z,24.30
2019-04-06T16:43:00.754Z,23.13
2019-04-06T16:45:43.708Z,18.63
2019-04-06T16:48:30.417Z,14.83
2019-04-06T16:51:19.825Z,20.40
2019-04-06T16:53:55.906Z,11.63
2019-04-06T16:56:35.641Z,10.60
2019-04-06T16:59:17.804Z,7.80
2019-04-06T17:02:02.926Z,8.37
2019-04-06T17:04:48.461Z,8.80
2019-04-06T17:07:21.434Z,8.10
2019-04-06T17:09:52.188Z,17.97
2019-04-06T17:12:31.052Z,16.33
2019-04-06T17:15:05.257Z,16.47
2019-04-06T17:17:35.246Z,13.70
2019-04-06T17:20:15.197Z,18.63
2019-04-06T17:22:45.195Z,20.90
2019-04-06T17:25:21.012Z,23.90
2019-04-06T17:27:51.425Z,26.17
2019-04-06T17:30:24.093Z,24.90
2019-04-06T17:33:09.194Z,19.43
2019-04-06T17:35:45.777Z,24.60
2019-04-06T17:38:21.923Z,21.00
2019-04-06T17:41:00.784Z,21.83
2019-04-06T17:43:47.578Z,26.00
2019-04-06T17:46:20.496Z,29.37
2019-04-06T17:48:55.116Z,25.10
2019-04-06T17:51:37.386Z,27.60
2019-04-06T17:54:11.310Z,32.83
2019-04-06T17:56:44.370Z,46.63
2019-04-06T17:59:14.235Z,50.00
2019-04-06T18:02:01.159Z,54.07
2019-04-06T18:04:43.628Z,49.43
2019-04-06T18:07:30.262Z,41.50
2019-04-06T18:10:16.684Z,32.43
2019-04-06T18:12:46.653Z,34.10
2019-04-06T18:15:15.427Z,57.97
2019-04-06T18:17:43.850Z,59.27
2019-04-06T18:20:12.266Z,77.37
2019-04-06T18:22:40.570Z,71.40
2019-04-06T18:25:08.730Z,99.47
2019-04-06T18:27:37.255Z,103.70
2019-04-06T18:30:07.684Z,106.13
2019-04-06T18:32:40.642Z,86.93
2019-04-06T18:35:10.061Z,77.23
2019-04-06T18:37:51.868Z,70.77
2019-04-06T18:40:22.634Z,89.13
2019-04-06T18:42:51.236Z,90.87
2019-04-06T18:45:19.817Z,87.20
2019-04-06T18:47:49.757Z,71.63
2019-04-06T18:50:18.412Z,79.90
2019-04-06T18:52:46.795Z,89.97
2019-04-06T18:55:15.994Z,424.40
2019-04-06T18:57:45.084Z,71.87
2019-04-06T19:00:13.922Z,59.57
2019-04-06T19:02:46.574Z,76.00
2019-04-06T19:05:14.834Z,44.80
2019-04-06T19:07:45.788Z,68.03
2019-04-06T19:10:15.830Z,71.90
2019-04-06T19:12:44.381Z,62.13
2019-04-06T19:15:12.642Z,66.53
2019-04-06T19:17:41.132Z,153.70
2019-04-06T19:20:10.449Z,69.13
2019-04-06T19:22:38.835Z,45.53
2019-04-06T19:25:07.185Z,43.10
2019-04-06T19:27:36.346Z,51.37
2019-04-06T19:30:06.471Z,106.80
2019-04-06T19:32:35.359Z,180.57
2019-04-06T19:35:06.653Z,115.57
2019-04-06T19:37:35.078Z,125.20
2019-04-06T19:40:03.802Z,137.00
2019-04-06T19:42:32.281Z,142.80
2019-04-06T19:45:01.307Z,107.37
2019-04-06T19:47:30.129Z,57.13
2019-04-06T19:49:58.532Z,52.37
2019-04-06T19:52:27.273Z,65.53
2019-04-06T19:54:55.748Z,80.03
2019-04-06T19:57:25.309Z,109.67
2019-04-06T19:59:54.064Z,91.07
2019-04-06T20:02:22.284Z,103.80
2019-04-06T20:04:50.861Z,90.77
2019-04-06T20:07:19.439Z,104.80
2019-04-06T20:09:47.778Z,86.93
2019-04-06T20:12:15.940Z,72.53
2019-04-06T20:14:45.007Z,82.70
2019-04-06T20:17:14.274Z,74.37
2019-04-06T20:19:42.886Z,63.47
2019-04-06T20:22:11.321Z,71.23
2019-04-06T20:24:39.478Z,62.40
2019-04-06T20:27:08.176Z,55.27
2019-04-06T20:29:36.866Z,50.70
2019-04-06T20:32:05.486Z,78.77
2019-04-06T20:34:34.475Z,72.97
2019-04-06T20:37:02.754Z,76.13
2019-04-06T20:39:33.327Z,84.53
2019-04-06T20:42:00.961Z,83.17
2019-04-06T20:44:29.167Z,79.17
2019-04-06T20:46:57.458Z,84.63
2019-04-06T20:49:26.265Z,83.73
2019-04-06T20:51:54.840Z,65.23
2019-04-06T20:54:23.234Z,67.13
2019-04-06T20:56:56.433Z,70.97
2019-04-06T20:59:22.117Z,64.63
2019-04-06T21:01:50.602Z,58.27
2019-04-06T21:04:19.842Z,53.53
2019-04-06T21:06:48.585Z,46.27
2019-04-06T21:09:16.758Z,46.17
2019-04-06T21:11:45.776Z,47.37
2019-04-06T21:14:14.442Z,43.90
2019-04-06T21:16:43.440Z,37.20
2019-04-06T21:19:12.481Z,34.40
2019-04-06T21:21:41.730Z,35.80
2019-04-06T21:24:10.284Z,41.57
2019-04-06T21:26:38.985Z,49.77
2019-04-06T21:29:07.192Z,49.80
2019-04-06T21:31:35.519Z,47.20
2019-04-06T21:34:11.423Z,38.77
2019-04-06T21:36:33.601Z,33.93
2019-04-06T21:39:01.789Z,34.47
2019-04-06T21:41:30.320Z,40.33
2019-04-06T21:43:58.632Z,51.23
2019-04-06T21:46:26.815Z,61.37
2019-04-06T21:48:55.795Z,59.63
2019-04-06T21:51:24.176Z,50.33
2019-04-06T21:53:52.923Z,48.77
2019-04-06T21:56:21.476Z,42.03
2019-04-06T21:58:49.757Z,60.97
2019-04-06T22:01:18.610Z,81.63
2019-04-06T22:03:47.345Z,60.57
2019-04-06T22:06:17.604Z,47.40
2019-04-06T22:08:45.792Z,259.27
2019-04-06T22:11:13.951Z,122.27
2019-04-06T22:13:42.225Z,80.87
2019-04-06T22:16:11.443Z,92.43
2019-04-06T22:18:39.878Z,118.90
2019-04-06T22:21:08.186Z,139.60
2019-04-06T22:23:42.154Z,118.73
2019-04-06T22:26:07.123Z,148.03
2019-04-06T22:28:35.571Z,151.00
2019-04-06T22:31:04.320Z,98.73
2019-04-06T22:33:33.028Z,99.13
2019-04-06T22:36:02.084Z,66.83
2019-04-06T22:38:30.868Z,59.87
2019-04-06T22:40:59.371Z,55.33
2019-04-06T22:43:28.293Z,57.17
2019-04-06T22:45:56.652Z,64.43
2019-04-06T22:48:25.270Z,63.40
2019-04-06T22:50:54.166Z,65.30
2019-04-06T22:53:22.606Z,62.23
2019-04-06T22:55:50.981Z,58.93
2019-04-06T22:58:19.701Z,56.47
2019-04-06T23:00:52.648Z,55.47
2019-04-06T23:03:29.721Z,52.50
2019-04-06T23:05:59.643Z,53.63
2019-04-06T23:08:27.924Z,50.80
2019-04-06T23:10:56.823Z,68.13
2019-04-06T23:13:25.231Z,60.90
2019-04-06T23:15:53.510Z,59.60
2019-04-06T23:18:22.209Z,61.83
2019-04-06T23:20:51.254Z,48.40
2019-04-06T23:23:19.877Z,55.30
2019-04-06T23:25:49.292Z,86.53
2019-04-06T23:28:18.139Z,88.57
2019-04-06T23:30:46.325Z,73.57
2019-04-06T23:33:14.892Z,83.43
2019-04-06T23:35:43.181Z,74.53
2019-04-06T23:38:12.289Z,68.20
2019-04-06T23:40:40.769Z,59.30
2019-04-06T23:43:09.674Z,57.77
2019-04-06T23:45:38.251Z,59.27
2019-04-06T23:48:07.109Z,50.83
2019-04-06T23:50:35.902Z,48.93
2019-04-06T23:53:04.502Z,51.93
2019-04-06T23:55:32.940Z,79.57
2019-04-06T23:58:01.642Z,69.53
